PWSweather.com
Personal Weather Stations
Station Observations
WD4JKH
Forsyth, GA 31029

Forsyth, GA 31029

Lat: 33.033225, Lon: -83.927995

Elevation: 709

Station Type: Davis Vantage VUE

High Low Average
Temperature 64.5°F18.1°C 45.5°F7.5°C 55.4°F13.0°C
Dew Point 56.2°F13.4°C 32.7°F0.4°C 45.7°F7.6°C
Winds 9.1 mph 14.6 kmh 1.0 mph 1.6 kmh 5.0 mph W8.0 kmh W
Wind Gusts 21.0 mph33.8 kmh 5.0 mph8.0 kmh 14.0 mph22.5 kmh
Humidity 93% 48% 71%
Pressure 30.11 in1019.6 mb 29.88 in1011.9 mb -
Precipitation 0.03 in0.8 mm - -
Hour Temp Dew Point Humidity Winds Wind Gusts Pressure Precip Precip Rate Daily Precip Total
12:00 AM 64.5°F18.1°C 53.9°F12.2°C 68% 5.0 mph SW8.0 kmh SW 13.0 mph20.9 kmh 29.93 in1013.5 mb 0.00 in0.0 mm 0.00 in0.0 mm 0.00 in0.0 mm
12:05 AM 64.4°F18.0°C 54.2°F12.3°C 69% 3.6 mph SW5.8 kmh SW 14.0 mph22.5 kmh 29.93 in1013.5 mb 0.00 in0.0 mm 0.00 in0.0 mm 0.00 in0.0 mm
12:10 AM 64.3°F17.9°C 54.1°F12.3°C 69% 2.2 mph SW3.5 kmh SW 14.0 mph22.5 kmh 29.93 in1013.5 mb 0.00 in0.0 mm 0.00 in0.0 mm 0.00 in0.0 mm
12:15 AM 64.3°F17.9°C 53.7°F12.1°C 68% 3.1 mph SW5.0 kmh SW 14.0 mph22.5 kmh 29.93 in1013.5 mb 0.00 in0.0 mm 0.00 in0.0 mm 0.00 in0.0 mm
12:20 AM 64.3°F17.9°C 53.7°F12.1°C 68% 3.2 mph SSW5.1 kmh SSW 14.0 mph22.5 kmh 29.93 in1013.5 mb 0.00 in0.0 mm 0.00 in0.0 mm 0.00 in0.0 mm
12:25 AM 64.3°F17.9°C 53.3°F11.8°C 67% 4.2 mph SW6.8 kmh SW 13.0 mph20.9 kmh 29.93 in1013.5 mb 0.00 in0.0 mm 0.00 in0.0 mm 0.00 in0.0 mm
12:30 AM 64.4°F18.0°C 53.4°F11.9°C 67% 2.9 mph SSW4.7 kmh SSW 13.0 mph20.9 kmh 29.93 in1013.5 mb 0.00 in0.0 mm 0.00 in0.0 mm 0.00 in0.0 mm
12:35 AM 64.4°F18.0°C 53.0°F11.7°C 66% 5.0 mph SW8.0 kmh SW 13.0 mph20.9 kmh 29.92 in1013.2 mb 0.00 in0.0 mm 0.00 in0.0 mm 0.00 in0.0 mm
12:40 AM 64.4°F18.0°C 53.0°F11.7°C 66% 3.0 mph SW4.8 kmh SW 16.0 mph25.7 kmh 29.92 in1013.2 mb 0.00 in0.0 mm 0.00 in0.0 mm 0.00 in0.0 mm
12:45 AM 64.4°F18.0°C 52.4°F11.3°C 65% 5.6 mph SW9.0 kmh SW 16.0 mph25.7 kmh 29.92 in1013.2 mb 0.00 in0.0 mm 0.00 in0.0 mm 0.00 in0.0 mm
12:50 AM 64.3°F17.9°C 52.3°F11.3°C 65% 3.6 mph SW5.8 kmh SW 16.0 mph25.7 kmh 29.92 in1013.2 mb 0.00 in0.0 mm 0.00 in0.0 mm 0.00 in0.0 mm
12:55 AM 64.1°F17.8°C 52.1°F11.2°C 65% 4.8 mph SW7.7 kmh SW 16.0 mph25.7 kmh 29.92 in1013.2 mb 0.00 in0.0 mm 0.00 in0.0 mm 0.00 in0.0 mm
01:00 AM 64.0°F17.8°C 52.0°F11.1°C 65% 4.3 mph SW6.9 kmh SW 13.0 mph20.9 kmh 29.92 in1013.2 mb 0.00 in0.0 mm 0.00 in0.0 mm 0.00 in0.0 mm
01:05 AM 63.9°F17.7°C 51.9°F11.1°C 65% 4.4 mph SW7.1 kmh SW 13.0 mph20.9 kmh 29.92 in1013.2 mb 0.00 in0.0 mm 0.00 in0.0 mm 0.00 in0.0 mm
01:10 AM 63.8°F17.7°C 51.5°F10.8°C 64% 7.1 mph SW11.4 kmh SW 16.0 mph25.7 kmh 29.92 in1013.2 mb 0.00 in0.0 mm 0.00 in0.0 mm 0.00 in0.0 mm
01:13 AM 63.7°F17.6°C 51.5°F10.8°C 64% 4.8 mph SW7.7 kmh SW 16.0 mph25.7 kmh 29.92 in1013.2 mb 0.00 in0.0 mm 0.00 in0.0 mm 0.00 in0.0 mm
01:18 AM 63.6°F17.6°C 51.4°F10.8°C 64% 4.3 mph SW6.9 kmh SW 16.0 mph25.7 kmh 29.91 in1012.9 mb 0.00 in0.0 mm 0.00 in0.0 mm 0.00 in0.0 mm
01:24 AM 63.5°F17.5°C 51.3°F10.7°C 64% 4.7 mph SW7.6 kmh SW 14.0 mph22.5 kmh 29.91 in1012.9 mb 0.00 in0.0 mm 0.00 in0.0 mm 0.00 in0.0 mm
01:29 AM 63.5°F17.5°C 51.3°F10.7°C 64% 3.0 mph SW4.8 kmh SW 13.0 mph20.9 kmh 29.92 in1013.2 mb 0.00 in0.0 mm 0.00 in0.0 mm 0.00 in0.0 mm
01:34 AM 63.4°F17.4°C 51.2°F10.7°C 64% 3.2 mph SW5.1 kmh SW 12.0 mph19.3 kmh 29.92 in1013.2 mb 0.00 in0.0 mm 0.00 in0.0 mm 0.00 in0.0 mm
01:39 AM 63.3°F17.4°C 51.1°F10.6°C 64% 4.1 mph SW6.6 kmh SW 13.0 mph20.9 kmh 29.91 in1012.9 mb 0.00 in0.0 mm 0.00 in0.0 mm 0.00 in0.0 mm
01:44 AM 63.2°F17.3°C 51.0°F10.6°C 64% 2.6 mph S4.2 kmh S 13.0 mph20.9 kmh 29.91 in1012.9 mb 0.00 in0.0 mm 0.00 in0.0 mm 0.00 in0.0 mm
01:49 AM 63.2°F17.3°C 51.0°F10.6°C 64% 3.9 mph SW6.3 kmh SW 13.0 mph20.9 kmh 29.91 in1012.9 mb 0.00 in0.0 mm 0.00 in0.0 mm 0.00 in0.0 mm
01:53 AM 63.1°F17.3°C 50.9°F10.5°C 64% 3.6 mph SW5.8 kmh SW 13.0 mph20.9 kmh 29.90 in1012.5 mb 0.00 in0.0 mm 0.00 in0.0 mm 0.00 in0.0 mm
01:59 AM 63.0°F17.2°C 50.6°F10.3°C 64% 4.7 mph SW7.6 kmh SW 14.0 mph22.5 kmh 29.90 in1012.5 mb 0.00 in0.0 mm 0.00 in0.0 mm 0.00 in0.0 mm
02:04 AM 63.0°F17.2°C 50.6°F10.3°C 64% 5.7 mph SW9.2 kmh SW 14.0 mph22.5 kmh 29.90 in1012.5 mb 0.00 in0.0 mm 0.00 in0.0 mm 0.00 in0.0 mm
02:09 AM 62.9°F17.2°C 50.5°F10.3°C 64% 4.7 mph SSW7.6 kmh SSW 14.0 mph22.5 kmh 29.89 in1012.2 mb 0.00 in0.0 mm 0.00 in0.0 mm 0.00 in0.0 mm
02:14 AM 62.8°F17.1°C 50.9°F10.5°C 65% 4.6 mph SW7.4 kmh SW 14.0 mph22.5 kmh 29.89 in1012.2 mb 0.00 in0.0 mm 0.00 in0.0 mm 0.00 in0.0 mm
02:19 AM 62.8°F17.1°C 51.0°F10.6°C 65% 4.5 mph SW7.2 kmh SW 15.0 mph24.1 kmh 29.89 in1012.2 mb 0.00 in0.0 mm 0.00 in0.0 mm 0.00 in0.0 mm
02:24 AM 62.7°F17.1°C 50.8°F10.4°C 65% 5.4 mph SW8.7 kmh SW 15.0 mph24.1 kmh 29.89 in1012.2 mb 0.00 in0.0 mm 0.00 in0.0 mm 0.00 in0.0 mm
02:29 AM 62.6°F17.0°C 50.8°F10.4°C 65% 3.9 mph SW6.3 kmh SW 15.0 mph24.1 kmh 29.89 in1012.2 mb 0.00 in0.0 mm 0.00 in0.0 mm 0.00 in0.0 mm
02:34 AM 62.6°F17.0°C 51.2°F10.7°C 66% 5.7 mph SW9.2 kmh SW 15.0 mph24.1 kmh 29.89 in1012.2 mb 0.00 in0.0 mm 0.00 in0.0 mm 0.00 in0.0 mm
02:39 AM 62.4°F16.9°C 51.0°F10.6°C 66% 2.8 mph SW4.5 kmh SW 13.0 mph20.9 kmh 29.89 in1012.2 mb 0.00 in0.0 mm 0.00 in0.0 mm 0.00 in0.0 mm
02:44 AM 62.3°F16.8°C 51.4°F10.8°C 67% 3.6 mph SW5.8 kmh SW 13.0 mph20.9 kmh 29.89 in1012.2 mb 0.00 in0.0 mm 0.00 in0.0 mm 0.00 in0.0 mm
02:49 AM 62.2°F16.8°C 51.3°F10.7°C 67% 3.9 mph SW6.3 kmh SW 13.0 mph20.9 kmh 29.89 in1012.2 mb 0.00 in0.0 mm 0.00 in0.0 mm 0.00 in0.0 mm
02:54 AM 62.3°F16.8°C 51.4°F10.8°C 67% 4.5 mph SW7.2 kmh SW 13.0 mph20.9 kmh 29.89 in1012.2 mb 0.00 in0.0 mm 0.00 in0.0 mm 0.00 in0.0 mm
02:59 AM 62.2°F16.8°C 51.3°F10.7°C 67% 3.2 mph SW5.1 kmh SW 13.0 mph20.9 kmh 29.89 in1012.2 mb 0.00 in0.0 mm 0.00 in0.0 mm 0.00 in0.0 mm
03:04 AM 62.2°F16.8°C 51.3°F10.7°C 67% 5.1 mph SW8.2 kmh SW 13.0 mph20.9 kmh 29.88 in1011.9 mb 0.00 in0.0 mm 0.00 in0.0 mm 0.00 in0.0 mm
03:09 AM 62.1°F16.7°C 51.6°F10.9°C 68% 4.3 mph SW6.9 kmh SW 12.0 mph19.3 kmh 29.89 in1012.2 mb 0.00 in0.0 mm 0.00 in0.0 mm 0.00 in0.0 mm
03:14 AM 62.1°F16.7°C 51.6°F10.9°C 68% 2.7 mph SW4.3 kmh SW 12.0 mph19.3 kmh 29.89 in1012.2 mb 0.00 in0.0 mm 0.00 in0.0 mm 0.00 in0.0 mm
03:19 AM 62.0°F16.7°C 51.5°F10.8°C 68% 4.9 mph SW7.9 kmh SW 12.0 mph19.3 kmh 29.88 in1011.9 mb 0.00 in0.0 mm 0.00 in0.0 mm 0.00 in0.0 mm
03:24 AM 61.9°F16.6°C 51.2°F10.7°C 68% 3.0 mph SW4.8 kmh SW 11.0 mph17.7 kmh 29.88 in1011.9 mb 0.00 in0.0 mm 0.00 in0.0 mm 0.00 in0.0 mm
03:29 AM 61.8°F16.6°C 51.5°F10.8°C 69% 5.1 mph SW8.2 kmh SW 11.0 mph17.7 kmh 29.88 in1011.9 mb 0.00 in0.0 mm 0.00 in0.0 mm 0.00 in0.0 mm
03:34 AM 61.8°F16.6°C 51.7°F10.9°C 69% 3.2 mph SW5.1 kmh SW 11.0 mph17.7 kmh 29.88 in1011.9 mb 0.00 in0.0 mm 0.00 in0.0 mm 0.00 in0.0 mm
03:39 AM 61.8°F16.6°C 51.7°F10.9°C 69% 3.3 mph SW5.3 kmh SW 11.0 mph17.7 kmh 29.88 in1011.9 mb 0.00 in0.0 mm 0.00 in0.0 mm 0.00 in0.0 mm
03:44 AM 61.9°F16.6°C 51.8°F11.0°C 69% 3.4 mph WSW5.5 kmh WSW 11.0 mph17.7 kmh 29.89 in1012.2 mb 0.00 in0.0 mm 0.00 in0.0 mm 0.00 in0.0 mm
03:49 AM 61.9°F16.6°C 51.8°F11.0°C 69% 2.4 mph SW3.9 kmh SW 11.0 mph17.7 kmh 29.89 in1012.2 mb 0.00 in0.0 mm 0.00 in0.0 mm 0.00 in0.0 mm
03:54 AM 62.0°F16.7°C 51.9°F11.1°C 69% 4.9 mph WSW7.9 kmh WSW 12.0 mph19.3 kmh 29.90 in1012.5 mb 0.00 in0.0 mm 0.00 in0.0 mm 0.00 in0.0 mm
03:59 AM 61.8°F16.6°C 52.8°F11.6°C 72% 4.3 mph WSW6.9 kmh WSW 12.0 mph19.3 kmh 29.90 in1012.5 mb 0.00 in0.0 mm 0.00 in0.0 mm 0.00 in0.0 mm
04:04 AM 61.3°F16.3°C 52.7°F11.5°C 73% 3.9 mph WSW6.3 kmh WSW 12.0 mph19.3 kmh 29.90 in1012.5 mb 0.00 in0.0 mm 0.00 in0.0 mm 0.00 in0.0 mm
04:09 AM 60.9°F16.1°C 53.0°F11.7°C 75% 2.0 mph SW3.2 kmh SW 12.0 mph19.3 kmh 29.90 in1012.5 mb 0.00 in0.0 mm 0.00 in0.0 mm 0.00 in0.0 mm
04:14 AM 60.5°F15.8°C 53.7°F12.1°C 78% 3.5 mph SW5.6 kmh SW 12.0 mph19.3 kmh 29.90 in1012.5 mb 0.00 in0.0 mm 0.00 in0.0 mm 0.00 in0.0 mm
04:19 AM 60.3°F15.7°C 53.5°F11.9°C 78% 2.4 mph SW3.9 kmh SW 10.0 mph16.1 kmh 29.90 in1012.5 mb 0.00 in0.0 mm 0.00 in0.0 mm 0.00 in0.0 mm
04:24 AM 60.1°F15.6°C 53.6°F12.0°C 79% 3.0 mph SW4.8 kmh SW 9.0 mph14.5 kmh 29.90 in1012.5 mb 0.00 in0.0 mm 0.00 in0.0 mm 0.00 in0.0 mm
04:29 AM 60.1°F15.6°C 54.0°F12.2°C 80% 3.6 mph SW5.8 kmh SW 12.0 mph19.3 kmh 29.90 in1012.5 mb 0.00 in0.0 mm 0.00 in0.0 mm 0.00 in0.0 mm
04:34 AM 60.4°F15.8°C 54.3°F12.4°C 80% 3.9 mph SW6.3 kmh SW 12.0 mph19.3 kmh 29.90 in1012.5 mb 0.00 in0.0 mm 0.00 in0.0 mm 0.00 in0.0 mm
04:39 AM 60.8°F16.0°C 54.6°F12.6°C 80% 3.2 mph WSW5.1 kmh WSW 12.0 mph19.3 kmh 29.89 in1012.2 mb 0.00 in0.0 mm 0.00 in0.0 mm 0.00 in0.0 mm
04:44 AM 61.1°F16.2°C 54.9°F12.7°C 80% 5.0 mph WSW8.0 kmh WSW 12.0 mph19.3 kmh 29.90 in1012.5 mb 0.00 in0.0 mm 0.00 in0.0 mm 0.00 in0.0 mm
04:49 AM 61.3°F16.3°C 55.1°F12.8°C 80% 3.9 mph WSW6.3 kmh WSW 12.0 mph19.3 kmh 29.90 in1012.5 mb 0.00 in0.0 mm 0.00 in0.0 mm 0.00 in0.0 mm
04:54 AM 61.4°F16.3°C 55.2°F12.9°C 80% 3.8 mph WSW6.1 kmh WSW 12.0 mph19.3 kmh 29.90 in1012.5 mb 0.00 in0.0 mm 0.00 in0.0 mm 0.00 in0.0 mm
04:59 AM 61.4°F16.3°C 55.5°F13.1°C 81% 6.8 mph WSW10.9 kmh WSW 15.0 mph24.1 kmh 29.90 in1012.5 mb 0.00 in0.0 mm 0.00 in0.0 mm 0.00 in0.0 mm
05:04 AM 61.3°F16.3°C 55.4°F13.0°C 81% 4.9 mph SW7.9 kmh SW 15.0 mph24.1 kmh 29.91 in1012.9 mb 0.00 in0.0 mm 0.00 in0.0 mm 0.00 in0.0 mm
05:09 AM 61.3°F16.3°C 55.4°F13.0°C 81% 6.3 mph WSW10.1 kmh WSW 15.0 mph24.1 kmh 29.91 in1012.9 mb 0.00 in0.0 mm 0.00 in0.0 mm 0.00 in0.0 mm
05:14 AM 61.3°F16.3°C 55.4°F13.0°C 81% 3.5 mph WSW5.6 kmh WSW 15.0 mph24.1 kmh 29.91 in1012.9 mb 0.00 in0.0 mm 0.00 in0.0 mm 0.00 in0.0 mm
05:19 AM 61.4°F16.3°C 55.5°F13.1°C 81% 6.3 mph WSW10.1 kmh WSW 13.0 mph20.9 kmh 29.91 in1012.9 mb 0.00 in0.0 mm 0.00 in0.0 mm 0.00 in0.0 mm
05:24 AM 61.3°F16.3°C 55.8°F13.2°C 82% 5.1 mph WSW8.2 kmh WSW 13.0 mph20.9 kmh 29.91 in1012.9 mb 0.00 in0.0 mm 0.00 in0.0 mm 0.00 in0.0 mm
05:29 AM 61.2°F16.2°C 55.7°F13.2°C 82% 3.9 mph WSW6.3 kmh WSW 13.0 mph20.9 kmh 29.91 in1012.9 mb 0.00 in0.0 mm 0.00 in0.0 mm 0.00 in0.0 mm
05:34 AM 61.1°F16.2°C 55.9°F13.3°C 83% 3.4 mph WSW5.5 kmh WSW 13.0 mph20.9 kmh 29.92 in1013.2 mb 0.00 in0.0 mm 0.00 in0.0 mm 0.00 in0.0 mm
05:39 AM 61.1°F16.2°C 55.9°F13.3°C 83% 5.4 mph W8.7 kmh W 13.0 mph20.9 kmh 29.92 in1013.2 mb 0.00 in0.0 mm 0.00 in0.0 mm 0.00 in0.0 mm
05:44 AM 61.1°F16.2°C 55.9°F13.3°C 83% 3.2 mph W5.1 kmh W 13.0 mph20.9 kmh 29.92 in1013.2 mb 0.00 in0.0 mm 0.00 in0.0 mm 0.00 in0.0 mm
05:49 AM 61.1°F16.2°C 56.2°F13.4°C 84% 3.3 mph WNW5.3 kmh WNW 12.0 mph19.3 kmh 29.93 in1013.5 mb 0.00 in0.0 mm 0.00 in0.0 mm 0.00 in0.0 mm
05:54 AM 61.1°F16.2°C 55.9°F13.3°C 83% 2.1 mph NW3.4 kmh NW 13.0 mph20.9 kmh 29.93 in1013.5 mb 0.00 in0.0 mm 0.00 in0.0 mm 0.00 in0.0 mm
05:59 AM 60.9°F16.1°C 55.4°F13.0°C 82% 6.5 mph WNW10.5 kmh WNW 17.0 mph27.4 kmh 29.94 in1013.9 mb 0.00 in0.0 mm 0.00 in0.0 mm 0.00 in0.0 mm
06:04 AM 60.8°F16.0°C 55.3°F12.9°C 82% 5.6 mph WNW9.0 kmh WNW 17.0 mph27.4 kmh 29.95 in1014.2 mb 0.00 in0.0 mm 0.00 in0.0 mm 0.00 in0.0 mm
06:09 AM 60.7°F15.9°C 55.2°F12.9°C 82% 3.8 mph WNW6.1 kmh WNW 17.0 mph27.4 kmh 29.94 in1013.9 mb 0.00 in0.0 mm 0.00 in0.0 mm 0.00 in0.0 mm
06:14 AM 60.4°F15.8°C 55.2°F12.9°C 83% 3.8 mph WNW6.1 kmh WNW 17.0 mph27.4 kmh 29.94 in1013.9 mb 0.00 in0.0 mm 0.00 in0.0 mm 0.00 in0.0 mm
06:19 AM 60.0°F15.6°C 54.8°F12.7°C 83% 4.8 mph NW7.7 kmh NW 14.0 mph22.5 kmh 29.94 in1013.9 mb 0.00 in0.0 mm 0.00 in0.0 mm 0.00 in0.0 mm
06:24 AM 59.7°F15.4°C 54.9°F12.7°C 84% 4.3 mph NW6.9 kmh NW 14.0 mph22.5 kmh 29.93 in1013.5 mb 0.00 in0.0 mm 0.00 in0.0 mm 0.00 in0.0 mm
06:29 AM 59.5°F15.3°C 55.0°F12.8°C 85% 3.0 mph WNW4.8 kmh WNW 14.0 mph22.5 kmh 29.94 in1013.9 mb 0.00 in0.0 mm 0.00 in0.0 mm 0.00 in0.0 mm
06:34 AM 59.3°F15.2°C 54.8°F12.7°C 85% 2.8 mph NW4.5 kmh NW 14.0 mph22.5 kmh 29.93 in1013.5 mb 0.00 in0.0 mm 0.00 in0.0 mm 0.00 in0.0 mm
06:39 AM 59.2°F15.1°C 54.7°F12.6°C 85% 2.4 mph NW3.9 kmh NW 10.0 mph16.1 kmh 29.93 in1013.5 mb 0.00 in0.0 mm 0.00 in0.0 mm 0.00 in0.0 mm
06:44 AM 58.9°F14.9°C 55.0°F12.8°C 87% 2.3 mph WNW3.7 kmh WNW 9.0 mph14.5 kmh 29.94 in1013.9 mb 0.00 in0.0 mm 0.00 in0.0 mm 0.00 in0.0 mm
06:49 AM 58.6°F14.8°C 54.7°F12.6°C 87% 3.2 mph NW5.1 kmh NW 9.0 mph14.5 kmh 29.94 in1013.9 mb 0.00 in0.0 mm 0.00 in0.0 mm 0.00 in0.0 mm
06:54 AM 58.2°F14.6°C 54.9°F12.7°C 89% 3.5 mph WNW5.6 kmh WNW 8.0 mph12.9 kmh 29.95 in1014.2 mb 0.00 in0.0 mm 0.00 in0.0 mm 0.00 in0.0 mm
06:59 AM 57.8°F14.3°C 54.9°F12.7°C 90% 3.4 mph NW5.5 kmh NW 8.0 mph12.9 kmh 29.95 in1014.2 mb 0.01 in0.3 mm 0.12 in3.0 mm 0.01 in0.3 mm
07:04 AM 57.5°F14.2°C 54.9°F12.7°C 91% 1.9 mph WNW3.1 kmh WNW 8.0 mph12.9 kmh 29.95 in1014.2 mb 0.01 in0.3 mm 0.00 in0.0 mm 0.01 in0.3 mm
07:09 AM 57.2°F14.0°C 54.6°F12.6°C 91% 2.1 mph NW3.4 kmh NW 8.0 mph12.9 kmh 29.95 in1014.2 mb 0.01 in0.3 mm 0.00 in0.0 mm 0.01 in0.3 mm
07:13 AM 57.2°F14.0°C 54.9°F12.7°C 92% 2.5 mph WNW4.0 kmh WNW 6.0 mph9.7 kmh 29.96 in1014.6 mb 0.01 in0.3 mm 0.00 in0.0 mm 0.01 in0.3 mm
07:18 AM 57.0°F13.9°C 54.7°F12.6°C 92% 1.4 mph W2.3 kmh W 6.0 mph9.7 kmh 29.97 in1014.9 mb 0.02 in0.5 mm 0.12 in3.0 mm 0.02 in0.5 mm
07:23 AM 57.0°F13.9°C 55.0°F12.8°C 93% 1.0 mph WNW1.6 kmh WNW 6.0 mph9.7 kmh 29.96 in1014.6 mb 0.02 in0.5 mm 0.00 in0.0 mm 0.02 in0.5 mm
07:28 AM 56.8°F13.8°C 54.8°F12.7°C 93% 1.4 mph NW2.3 kmh NW 5.0 mph8.0 kmh 29.97 in1014.9 mb 0.02 in0.5 mm 0.00 in0.0 mm 0.02 in0.5 mm
07:33 AM 56.6°F13.7°C 54.6°F12.6°C 93% 2.2 mph NW3.5 kmh NW 5.0 mph8.0 kmh 29.96 in1014.6 mb 0.02 in0.5 mm 0.00 in0.0 mm 0.02 in0.5 mm
07:38 AM 56.4°F13.6°C 54.1°F12.3°C 92% 3.8 mph NW6.1 kmh NW 9.0 mph14.5 kmh 29.96 in1014.6 mb 0.02 in0.5 mm 0.00 in0.0 mm 0.02 in0.5 mm
07:43 AM 56.2°F13.4°C 53.9°F12.2°C 92% 3.4 mph NW5.5 kmh NW 9.0 mph14.5 kmh 29.97 in1014.9 mb 0.02 in0.5 mm 0.00 in0.0 mm 0.02 in0.5 mm
07:48 AM 56.1°F13.4°C 53.8°F12.1°C 92% 5.6 mph NW9.0 kmh NW 11.0 mph17.7 kmh 29.97 in1014.9 mb 0.02 in0.5 mm 0.00 in0.0 mm 0.02 in0.5 mm
07:53 AM 55.7°F13.2°C 53.1°F11.7°C 91% 6.7 mph NW10.8 kmh NW 16.0 mph25.7 kmh 29.98 in1015.2 mb 0.02 in0.5 mm 0.00 in0.0 mm 0.02 in0.5 mm
07:58 AM 55.3°F12.9°C 52.4°F11.3°C 90% 4.9 mph NW7.9 kmh NW 16.0 mph25.7 kmh 29.98 in1015.2 mb 0.01 in0.3 mm 0.00 in0.0 mm 0.02 in0.5 mm
08:03 AM 54.9°F12.7°C 52.0°F11.1°C 90% 4.2 mph NW6.8 kmh NW 16.0 mph25.7 kmh 29.98 in1015.2 mb 0.01 in0.3 mm 0.00 in0.0 mm 0.02 in0.5 mm
08:08 AM 54.7°F12.6°C 52.1°F11.2°C 91% 4.4 mph WNW7.1 kmh WNW 16.0 mph25.7 kmh 29.98 in1015.2 mb 0.01 in0.3 mm 0.00 in0.0 mm 0.02 in0.5 mm
08:13 AM 54.6°F12.6°C 52.0°F11.1°C 91% 3.2 mph W5.1 kmh W 14.0 mph22.5 kmh 29.99 in1015.6 mb 0.01 in0.3 mm 0.00 in0.0 mm 0.02 in0.5 mm
08:18 AM 54.5°F12.5°C 51.9°F11.1°C 91% 3.9 mph WNW6.3 kmh WNW 14.0 mph22.5 kmh 29.99 in1015.6 mb 0.00 in0.0 mm 0.00 in0.0 mm 0.02 in0.5 mm
08:23 AM 54.2°F12.3°C 51.6°F10.9°C 91% 4.5 mph WNW7.2 kmh WNW 13.0 mph20.9 kmh 30.00 in1015.9 mb 0.00 in0.0 mm 0.00 in0.0 mm 0.02 in0.5 mm
08:28 AM 53.2°F11.8°C 50.0°F10.0°C 89% 7.1 mph WNW11.4 kmh WNW 15.0 mph24.1 kmh 30.00 in1015.9 mb 0.00 in0.0 mm 0.00 in0.0 mm 0.02 in0.5 mm
08:33 AM 52.1°F11.2°C 48.7°F9.3°C 88% 7.3 mph NW11.7 kmh NW 17.0 mph27.4 kmh 30.01 in1016.3 mb 0.00 in0.0 mm 0.00 in0.0 mm 0.02 in0.5 mm
08:38 AM 51.3°F10.7°C 47.6°F8.7°C 87% 7.5 mph WNW12.1 kmh WNW 17.0 mph27.4 kmh 30.00 in1015.9 mb 0.00 in0.0 mm 0.00 in0.0 mm 0.02 in0.5 mm
08:43 AM 50.7°F10.4°C 46.7°F8.2°C 86% 6.6 mph NW10.6 kmh NW 17.0 mph27.4 kmh 30.01 in1016.3 mb 0.00 in0.0 mm 0.00 in0.0 mm 0.02 in0.5 mm
08:48 AM 50.4°F10.2°C 46.4°F8.0°C 86% 4.8 mph NW7.7 kmh NW 17.0 mph27.4 kmh 30.01 in1016.3 mb 0.00 in0.0 mm 0.00 in0.0 mm 0.02 in0.5 mm
08:53 AM 50.1°F10.1°C 46.4°F8.0°C 87% 5.6 mph NW9.0 kmh NW 16.0 mph25.7 kmh 30.02 in1016.6 mb 0.00 in0.0 mm 0.00 in0.0 mm 0.02 in0.5 mm
08:58 AM 49.8°F9.9°C 46.4°F8.0°C 88% 2.7 mph NW4.3 kmh NW 16.0 mph25.7 kmh 30.02 in1016.6 mb 0.00 in0.0 mm 0.00 in0.0 mm 0.02 in0.5 mm
09:03 AM 49.6°F9.8°C 46.2°F7.9°C 88% 4.6 mph NW7.4 kmh NW 16.0 mph25.7 kmh 30.03 in1016.9 mb 0.00 in0.0 mm 0.00 in0.0 mm 0.02 in0.5 mm
09:08 AM 49.3°F9.6°C 45.9°F7.7°C 88% 4.8 mph NW7.7 kmh NW 16.0 mph25.7 kmh 30.02 in1016.6 mb 0.00 in0.0 mm 0.00 in0.0 mm 0.02 in0.5 mm
09:13 AM 48.9°F9.4°C 45.5°F7.5°C 88% 6.4 mph NW10.3 kmh NW 16.0 mph25.7 kmh 30.02 in1016.6 mb 0.00 in0.0 mm 0.00 in0.0 mm 0.02 in0.5 mm
09:18 AM 48.6°F9.2°C 45.5°F7.5°C 89% 3.8 mph NNW6.1 kmh NNW 13.0 mph20.9 kmh 30.03 in1016.9 mb 0.00 in0.0 mm 0.00 in0.0 mm 0.02 in0.5 mm
09:23 AM 48.5°F9.2°C 45.7°F7.6°C 90% 3.2 mph NW5.1 kmh NW 13.0 mph20.9 kmh 30.03 in1016.9 mb 0.00 in0.0 mm 0.00 in0.0 mm 0.02 in0.5 mm
09:28 AM 48.3°F9.1°C 45.2°F7.3°C 89% 4.1 mph NW6.6 kmh NW 13.0 mph20.9 kmh 30.04 in1017.3 mb 0.00 in0.0 mm 0.00 in0.0 mm 0.02 in0.5 mm
09:33 AM 48.1°F8.9°C 45.0°F7.2°C 89% 5.1 mph NW8.2 kmh NW 16.0 mph25.7 kmh 30.04 in1017.3 mb 0.00 in0.0 mm 0.00 in0.0 mm 0.02 in0.5 mm
09:38 AM 48.0°F8.9°C 44.9°F7.2°C 89% 6.2 mph WNW10.0 kmh WNW 16.0 mph25.7 kmh 30.06 in1017.9 mb 0.00 in0.0 mm 0.00 in0.0 mm 0.02 in0.5 mm
09:43 AM 47.8°F8.8°C 44.7°F7.1°C 89% 3.6 mph NW5.8 kmh NW 21.0 mph33.8 kmh 30.06 in1017.9 mb 0.00 in0.0 mm 0.00 in0.0 mm 0.02 in0.5 mm
09:48 AM 47.6°F8.7°C 44.8°F7.1°C 90% 4.5 mph NW7.2 kmh NW 21.0 mph33.8 kmh 30.06 in1017.9 mb 0.01 in0.3 mm 0.12 in3.0 mm 0.03 in0.8 mm
09:53 AM 47.1°F8.4°C 44.3°F6.8°C 90% 6.3 mph NW10.1 kmh NW 21.0 mph33.8 kmh 30.06 in1017.9 mb 0.01 in0.3 mm 0.00 in0.0 mm 0.03 in0.8 mm
09:58 AM 46.6°F8.1°C 43.8°F6.6°C 90% 9.1 mph NW14.6 kmh NW 21.0 mph33.8 kmh 30.06 in1017.9 mb 0.01 in0.3 mm 0.00 in0.0 mm 0.03 in0.8 mm
10:03 AM 46.2°F7.9°C 43.7°F6.5°C 91% 5.1 mph WNW8.2 kmh WNW 19.0 mph30.6 kmh 30.06 in1017.9 mb 0.01 in0.3 mm 0.00 in0.0 mm 0.03 in0.8 mm
10:08 AM 45.9°F7.7°C 43.1°F6.2°C 90% 7.2 mph NW11.6 kmh NW 19.0 mph30.6 kmh 30.07 in1018.3 mb 0.01 in0.3 mm 0.00 in0.0 mm 0.03 in0.8 mm
10:13 AM 45.9°F7.7°C 43.1°F6.2°C 90% 5.4 mph NW8.7 kmh NW 19.0 mph30.6 kmh 30.07 in1018.3 mb 0.01 in0.3 mm 0.00 in0.0 mm 0.03 in0.8 mm
10:18 AM 45.8°F7.7°C 42.7°F5.9°C 89% 4.9 mph NW7.9 kmh NW 16.0 mph25.7 kmh 30.07 in1018.3 mb 0.01 in0.3 mm 0.00 in0.0 mm 0.03 in0.8 mm
10:23 AM 45.7°F7.6°C 42.6°F5.9°C 89% 7.1 mph WNW11.4 kmh WNW 16.0 mph25.7 kmh 30.08 in1018.6 mb 0.01 in0.3 mm 0.00 in0.0 mm 0.03 in0.8 mm
10:28 AM 45.6°F7.6°C 42.5°F5.8°C 89% 7.7 mph NW12.4 kmh NW 15.0 mph24.1 kmh 30.08 in1018.6 mb 0.01 in0.3 mm 0.00 in0.0 mm 0.03 in0.8 mm
10:33 AM 45.5°F7.5°C 42.4°F5.8°C 89% 5.6 mph NW9.0 kmh NW 15.0 mph24.1 kmh 30.08 in1018.6 mb 0.01 in0.3 mm 0.00 in0.0 mm 0.03 in0.8 mm
10:38 AM 45.6°F7.6°C 42.2°F5.7°C 88% 6.4 mph NW10.3 kmh NW 14.0 mph22.5 kmh 30.09 in1019.0 mb 0.01 in0.3 mm 0.00 in0.0 mm 0.03 in0.8 mm
10:43 AM 45.7°F7.6°C 41.7°F5.4°C 86% 8.4 mph WNW13.5 kmh WNW 17.0 mph27.4 kmh 30.08 in1018.6 mb 0.01 in0.3 mm 0.00 in0.0 mm 0.03 in0.8 mm
10:48 AM 45.9°F7.7°C 41.9°F5.5°C 86% 6.1 mph WNW9.8 kmh WNW 17.0 mph27.4 kmh 30.09 in1019.0 mb 0.00 in0.0 mm 0.00 in0.0 mm 0.03 in0.8 mm
10:53 AM 46.0°F7.8°C 41.7°F5.4°C 85% 7.6 mph WNW12.2 kmh WNW 17.0 mph27.4 kmh 30.09 in1019.0 mb 0.00 in0.0 mm 0.00 in0.0 mm 0.03 in0.8 mm
10:58 AM 46.2°F7.9°C 41.9°F5.5°C 85% 5.4 mph WNW8.7 kmh WNW 15.0 mph24.1 kmh 30.07 in1018.3 mb 0.00 in0.0 mm 0.00 in0.0 mm 0.03 in0.8 mm
11:03 AM 46.6°F8.1°C 42.3°F5.7°C 85% 5.3 mph NW8.5 kmh NW 15.0 mph24.1 kmh 30.07 in1018.3 mb 0.00 in0.0 mm 0.00 in0.0 mm 0.03 in0.8 mm
11:08 AM 46.8°F8.2°C 42.2°F5.7°C 84% 5.4 mph NW8.7 kmh NW 15.0 mph24.1 kmh 30.08 in1018.6 mb 0.00 in0.0 mm 0.00 in0.0 mm 0.03 in0.8 mm
11:13 AM 47.1°F8.4°C 42.2°F5.7°C 83% 4.9 mph WNW7.9 kmh WNW 15.0 mph24.1 kmh 30.08 in1018.6 mb 0.00 in0.0 mm 0.00 in0.0 mm 0.03 in0.8 mm
11:18 AM 47.1°F8.4°C 41.9°F5.5°C 82% 6.4 mph NW10.3 kmh NW 14.0 mph22.5 kmh 30.07 in1018.3 mb 0.00 in0.0 mm 0.00 in0.0 mm 0.03 in0.8 mm
11:23 AM 47.3°F8.5°C 41.8°F5.4°C 81% 5.1 mph NW8.2 kmh NW 14.0 mph22.5 kmh 30.07 in1018.3 mb 0.00 in0.0 mm 0.00 in0.0 mm 0.03 in0.8 mm
11:28 AM 47.4°F8.6°C 41.6°F5.3°C 80% 8.1 mph NNW13.0 kmh NNW 17.0 mph27.4 kmh 30.06 in1017.9 mb 0.00 in0.0 mm 0.00 in0.0 mm 0.03 in0.8 mm
11:33 AM 47.6°F8.7°C 41.8°F5.4°C 80% 5.2 mph WNW8.4 kmh WNW 17.0 mph27.4 kmh 30.06 in1017.9 mb 0.00 in0.0 mm 0.00 in0.0 mm 0.03 in0.8 mm
11:38 AM 48.1°F8.9°C 42.3°F5.7°C 80% 4.9 mph NNW7.9 kmh NNW 17.0 mph27.4 kmh 30.07 in1018.3 mb 0.00 in0.0 mm 0.00 in0.0 mm 0.03 in0.8 mm
11:43 AM 48.3°F9.1°C 41.8°F5.4°C 78% 3.8 mph NW6.1 kmh NW 17.0 mph27.4 kmh 30.08 in1018.6 mb 0.00 in0.0 mm 0.00 in0.0 mm 0.03 in0.8 mm
11:48 AM 48.8°F9.3°C 42.3°F5.7°C 78% 4.3 mph NW6.9 kmh NW 14.0 mph22.5 kmh 30.07 in1018.3 mb 0.00 in0.0 mm 0.00 in0.0 mm 0.03 in0.8 mm
11:53 AM 49.3°F9.6°C 42.1°F5.6°C 76% 5.7 mph WNW9.2 kmh WNW 13.0 mph20.9 kmh 30.08 in1018.6 mb 0.00 in0.0 mm 0.00 in0.0 mm 0.03 in0.8 mm
11:58 AM 49.7°F9.8°C 42.2°F5.7°C 75% 4.5 mph WNW7.2 kmh WNW 13.0 mph20.9 kmh 30.08 in1018.6 mb 0.00 in0.0 mm 0.00 in0.0 mm 0.03 in0.8 mm
12:03 PM 50.0°F10.0°C 42.1°F5.6°C 74% 4.4 mph WNW7.1 kmh WNW 14.0 mph22.5 kmh 30.08 in1018.6 mb 0.00 in0.0 mm 0.00 in0.0 mm 0.03 in0.8 mm
12:08 PM 50.0°F10.0°C 41.8°F5.4°C 73% 5.0 mph NW8.0 kmh NW 14.0 mph22.5 kmh 30.08 in1018.6 mb 0.00 in0.0 mm 0.00 in0.0 mm 0.03 in0.8 mm
12:13 PM 49.9°F9.9°C 41.7°F5.4°C 73% 6.6 mph WNW10.6 kmh WNW 14.0 mph22.5 kmh 30.07 in1018.3 mb 0.00 in0.0 mm 0.00 in0.0 mm 0.03 in0.8 mm
12:18 PM 50.1°F10.1°C 41.4°F5.2°C 72% 6.8 mph WNW10.9 kmh WNW 15.0 mph24.1 kmh 30.08 in1018.6 mb 0.00 in0.0 mm 0.00 in0.0 mm 0.03 in0.8 mm
12:23 PM 50.3°F10.2°C 41.6°F5.3°C 72% 5.7 mph WNW9.2 kmh WNW 16.0 mph25.7 kmh 30.07 in1018.3 mb 0.00 in0.0 mm 0.00 in0.0 mm 0.03 in0.8 mm
12:28 PM 50.5°F10.3°C 41.1°F5.1°C 70% 4.5 mph W7.2 kmh W 16.0 mph25.7 kmh 30.07 in1018.3 mb 0.00 in0.0 mm 0.00 in0.0 mm 0.03 in0.8 mm
12:33 PM 50.6°F10.3°C 40.9°F4.9°C 69% 5.1 mph NW8.2 kmh NW 16.0 mph25.7 kmh 30.07 in1018.3 mb 0.00 in0.0 mm 0.00 in0.0 mm 0.03 in0.8 mm
12:38 PM 50.9°F10.5°C 41.6°F5.3°C 70% 4.0 mph NW6.4 kmh NW 12.0 mph19.3 kmh 30.06 in1017.9 mb 0.00 in0.0 mm 0.00 in0.0 mm 0.03 in0.8 mm
12:43 PM 51.1°F10.6°C 41.0°F5.0°C 68% 3.3 mph NW5.3 kmh NW 12.0 mph19.3 kmh 30.07 in1018.3 mb 0.00 in0.0 mm 0.00 in0.0 mm 0.03 in0.8 mm
12:48 PM 50.9°F10.5°C 40.8°F4.9°C 68% 4.9 mph WNW7.9 kmh WNW 12.0 mph19.3 kmh 30.07 in1018.3 mb 0.00 in0.0 mm 0.00 in0.0 mm 0.03 in0.8 mm
12:53 PM 50.8°F10.4°C 40.7°F4.8°C 68% 6.5 mph WNW10.5 kmh WNW 14.0 mph22.5 kmh 30.07 in1018.3 mb 0.00 in0.0 mm 0.00 in0.0 mm 0.03 in0.8 mm
12:58 PM 50.8°F10.4°C 40.7°F4.8°C 68% 5.5 mph NW8.9 kmh NW 14.0 mph22.5 kmh 30.06 in1017.9 mb 0.00 in0.0 mm 0.00 in0.0 mm 0.03 in0.8 mm
01:03 PM 50.9°F10.5°C 40.8°F4.9°C 68% 6.6 mph WNW10.6 kmh WNW 14.0 mph22.5 kmh 30.06 in1017.9 mb 0.00 in0.0 mm 0.00 in0.0 mm 0.03 in0.8 mm
01:08 PM 51.2°F10.7°C 41.5°F5.3°C 69% 2.6 mph NNW4.2 kmh NNW 14.0 mph22.5 kmh 30.07 in1018.3 mb 0.00 in0.0 mm 0.00 in0.0 mm 0.03 in0.8 mm
01:12 PM 51.1°F10.6°C 40.6°F4.8°C 67% 5.0 mph NW8.0 kmh NW 14.0 mph22.5 kmh 30.07 in1018.3 mb 0.00 in0.0 mm 0.00 in0.0 mm 0.03 in0.8 mm
01:17 PM 51.0°F10.6°C 40.2°F4.6°C 66% 5.4 mph NW8.7 kmh NW 14.0 mph22.5 kmh 30.07 in1018.3 mb 0.00 in0.0 mm 0.00 in0.0 mm 0.03 in0.8 mm
01:22 PM 51.0°F10.6°C 40.2°F4.6°C 66% 6.1 mph NW9.8 kmh NW 13.0 mph20.9 kmh 30.07 in1018.3 mb 0.00 in0.0 mm 0.00 in0.0 mm 0.03 in0.8 mm
01:27 PM 51.1°F10.6°C 40.2°F4.6°C 66% 5.4 mph WNW8.7 kmh WNW 13.0 mph20.9 kmh 30.07 in1018.3 mb 0.00 in0.0 mm 0.00 in0.0 mm 0.03 in0.8 mm
01:32 PM 51.6°F10.9°C 40.3°F4.6°C 65% 5.0 mph NW8.0 kmh NW 14.0 mph22.5 kmh 30.07 in1018.3 mb 0.00 in0.0 mm 0.00 in0.0 mm 0.03 in0.8 mm
01:37 PM 51.9°F11.1°C 40.2°F4.6°C 64% 5.4 mph NW8.7 kmh NW 14.0 mph22.5 kmh 30.06 in1017.9 mb 0.00 in0.0 mm 0.00 in0.0 mm 0.03 in0.8 mm
01:42 PM 52.2°F11.2°C 40.5°F4.7°C 64% 4.1 mph NNW6.6 kmh NNW 14.0 mph22.5 kmh 30.06 in1017.9 mb 0.00 in0.0 mm 0.00 in0.0 mm 0.03 in0.8 mm
01:47 PM 52.5°F11.4°C 40.4°F4.7°C 63% 3.7 mph NW6.0 kmh NW 14.0 mph22.5 kmh 30.06 in1017.9 mb 0.00 in0.0 mm 0.00 in0.0 mm 0.03 in0.8 mm
01:52 PM 53.0°F11.7°C 40.4°F4.7°C 62% 4.4 mph N7.1 kmh N 12.0 mph19.3 kmh 30.06 in1017.9 mb 0.00 in0.0 mm 0.00 in0.0 mm 0.03 in0.8 mm
01:57 PM 52.8°F11.6°C 40.2°F4.6°C 62% 4.4 mph NW7.1 kmh NW 13.0 mph20.9 kmh 30.06 in1017.9 mb 0.00 in0.0 mm 0.00 in0.0 mm 0.03 in0.8 mm
02:02 PM 53.1°F11.7°C 40.5°F4.7°C 62% 3.5 mph NW5.6 kmh NW 13.0 mph20.9 kmh 30.06 in1017.9 mb 0.00 in0.0 mm 0.00 in0.0 mm 0.03 in0.8 mm
02:07 PM 53.0°F11.7°C 38.7°F3.7°C 58% 7.4 mph NW11.9 kmh NW 15.0 mph24.1 kmh 30.06 in1017.9 mb 0.00 in0.0 mm 0.00 in0.0 mm 0.03 in0.8 mm
02:12 PM 53.0°F11.7°C 39.1°F3.9°C 59% 6.3 mph NW10.1 kmh NW 15.0 mph24.1 kmh 30.06 in1017.9 mb 0.00 in0.0 mm 0.00 in0.0 mm 0.03 in0.8 mm
02:17 PM 53.0°F11.7°C 39.0°F3.9°C 59% 6.8 mph WNW10.9 kmh WNW 15.0 mph24.1 kmh 30.05 in1017.6 mb 0.00 in0.0 mm 0.00 in0.0 mm 0.03 in0.8 mm
02:22 PM 53.1°F11.7°C 39.6°F4.2°C 60% 6.8 mph NW10.9 kmh NW 15.0 mph24.1 kmh 30.05 in1017.6 mb 0.00 in0.0 mm 0.00 in0.0 mm 0.03 in0.8 mm
02:27 PM 53.1°F11.7°C 38.8°F3.8°C 58% 5.2 mph NW8.4 kmh NW 16.0 mph25.7 kmh 30.05 in1017.6 mb 0.00 in0.0 mm 0.00 in0.0 mm 0.03 in0.8 mm
02:32 PM 52.9°F11.6°C 38.2°F3.4°C 57% 7.0 mph NW11.3 kmh NW 16.0 mph25.7 kmh 30.05 in1017.6 mb 0.00 in0.0 mm 0.00 in0.0 mm 0.03 in0.8 mm
02:37 PM 53.2°F11.8°C 38.4°F3.6°C 57% 4.7 mph NW7.6 kmh NW 16.0 mph25.7 kmh 30.05 in1017.6 mb 0.00 in0.0 mm 0.00 in0.0 mm 0.03 in0.8 mm
02:42 PM 53.1°F11.7°C 38.7°F3.7°C 58% 4.7 mph NW7.6 kmh NW 15.0 mph24.1 kmh 30.05 in1017.6 mb 0.00 in0.0 mm 0.00 in0.0 mm 0.03 in0.8 mm
02:47 PM 53.4°F11.9°C 38.6°F3.7°C 57% 4.0 mph NW6.4 kmh NW 13.0 mph20.9 kmh 30.06 in1017.9 mb 0.00 in0.0 mm 0.00 in0.0 mm 0.03 in0.8 mm
02:52 PM 53.4°F11.9°C 38.6°F3.7°C 57% 4.7 mph NW7.6 kmh NW 13.0 mph20.9 kmh 30.06 in1017.9 mb 0.00 in0.0 mm 0.00 in0.0 mm 0.03 in0.8 mm
02:57 PM 53.7°F12.1°C 39.4°F4.1°C 58% 5.4 mph W8.7 kmh W 13.0 mph20.9 kmh 30.06 in1017.9 mb 0.00 in0.0 mm 0.00 in0.0 mm 0.03 in0.8 mm
03:02 PM 53.4°F11.9°C 38.2°F3.4°C 56% 8.9 mph WNW14.3 kmh WNW 14.0 mph22.5 kmh 30.06 in1017.9 mb 0.00 in0.0 mm 0.00 in0.0 mm 0.03 in0.8 mm
03:07 PM 53.5°F11.9°C 35.8°F2.1°C 51% 5.7 mph NW9.2 kmh NW 14.0 mph22.5 kmh 30.06 in1017.9 mb 0.00 in0.0 mm 0.00 in0.0 mm 0.03 in0.8 mm
03:12 PM 53.6°F12.0°C 35.9°F2.2°C 51% 3.4 mph NNW5.5 kmh NNW 14.0 mph22.5 kmh 30.06 in1017.9 mb 0.00 in0.0 mm 0.00 in0.0 mm 0.03 in0.8 mm
03:17 PM 53.8°F12.1°C 37.1°F2.8°C 53% 2.5 mph NNW4.0 kmh NNW 14.0 mph22.5 kmh 30.06 in1017.9 mb 0.00 in0.0 mm 0.00 in0.0 mm 0.03 in0.8 mm
03:22 PM 54.3°F12.4°C 37.6°F3.1°C 53% 3.0 mph NW4.8 kmh NW 14.0 mph22.5 kmh 30.07 in1018.3 mb 0.00 in0.0 mm 0.00 in0.0 mm 0.03 in0.8 mm
03:27 PM 54.0°F12.2°C 36.8°F2.7°C 52% 5.0 mph NW8.0 kmh NW 13.0 mph20.9 kmh 30.07 in1018.3 mb 0.00 in0.0 mm 0.00 in0.0 mm 0.03 in0.8 mm
03:32 PM 53.8°F12.1°C 38.1°F3.4°C 55% 2.8 mph NW4.5 kmh NW 13.0 mph20.9 kmh 30.07 in1018.3 mb 0.00 in0.0 mm 0.00 in0.0 mm 0.03 in0.8 mm
03:37 PM 53.8°F12.1°C 36.1°F2.3°C 51% 3.2 mph NW5.1 kmh NW 13.0 mph20.9 kmh 30.07 in1018.3 mb 0.00 in0.0 mm 0.00 in0.0 mm 0.03 in0.8 mm
03:42 PM 53.7°F12.1°C 36.5°F2.5°C 52% 5.4 mph N8.7 kmh N 12.0 mph19.3 kmh 30.07 in1018.3 mb 0.00 in0.0 mm 0.00 in0.0 mm 0.03 in0.8 mm
03:47 PM 53.9°F12.2°C 37.2°F2.9°C 53% 3.5 mph NW5.6 kmh NW 12.0 mph19.3 kmh 30.07 in1018.3 mb 0.00 in0.0 mm 0.00 in0.0 mm 0.03 in0.8 mm
03:52 PM 53.7°F12.1°C 36.5°F2.5°C 52% 4.7 mph NW7.6 kmh NW 15.0 mph24.1 kmh 30.07 in1018.3 mb 0.00 in0.0 mm 0.00 in0.0 mm 0.03 in0.8 mm
03:57 PM 54.0°F12.2°C 36.8°F2.7°C 52% 4.2 mph WNW6.8 kmh WNW 15.0 mph24.1 kmh 30.07 in1018.3 mb 0.00 in0.0 mm 0.00 in0.0 mm 0.03 in0.8 mm
04:02 PM 53.8°F12.1°C 36.1°F2.3°C 51% 7.4 mph WNW11.9 kmh WNW 16.0 mph25.7 kmh 30.07 in1018.3 mb 0.00 in0.0 mm 0.00 in0.0 mm 0.03 in0.8 mm
04:07 PM 53.6°F12.0°C 34.9°F1.6°C 49% 7.2 mph NW11.6 kmh NW 16.0 mph25.7 kmh 30.08 in1018.6 mb 0.00 in0.0 mm 0.00 in0.0 mm 0.03 in0.8 mm
04:12 PM 53.4°F11.9°C 35.2°F1.8°C 50% 5.2 mph NW8.4 kmh NW 16.0 mph25.7 kmh 30.07 in1018.3 mb 0.00 in0.0 mm 0.00 in0.0 mm 0.03 in0.8 mm
04:17 PM 53.3°F11.8°C 35.6°F2.0°C 51% 3.5 mph NW5.6 kmh NW 16.0 mph25.7 kmh 30.07 in1018.3 mb 0.00 in0.0 mm 0.00 in0.0 mm 0.03 in0.8 mm
04:22 PM 53.2°F11.8°C 35.5°F1.9°C 51% 6.3 mph NW10.1 kmh NW 13.0 mph20.9 kmh 30.08 in1018.6 mb 0.00 in0.0 mm 0.00 in0.0 mm 0.03 in0.8 mm
04:27 PM 53.0°F11.7°C 35.3°F1.8°C 51% 3.3 mph NW5.3 kmh NW 15.0 mph24.1 kmh 30.08 in1018.6 mb 0.00 in0.0 mm 0.00 in0.0 mm 0.03 in0.8 mm
04:32 PM 53.0°F11.7°C 35.3°F1.8°C 51% 6.6 mph NW10.6 kmh NW 15.0 mph24.1 kmh 30.08 in1018.6 mb 0.00 in0.0 mm 0.00 in0.0 mm 0.03 in0.8 mm
04:37 PM 52.9°F11.6°C 35.7°F2.1°C 52% 2.5 mph WNW4.0 kmh WNW 15.0 mph24.1 kmh 30.08 in1018.6 mb 0.00 in0.0 mm 0.00 in0.0 mm 0.03 in0.8 mm
04:42 PM 52.8°F11.6°C 35.7°F2.1°C 52% 6.2 mph WNW10.0 kmh WNW 15.0 mph24.1 kmh 30.08 in1018.6 mb 0.00 in0.0 mm 0.00 in0.0 mm 0.03 in0.8 mm
04:47 PM 52.8°F11.6°C 35.7°F2.1°C 52% 5.8 mph WNW9.3 kmh WNW 15.0 mph24.1 kmh 30.08 in1018.6 mb 0.00 in0.0 mm 0.00 in0.0 mm 0.03 in0.8 mm
04:52 PM 52.9°F11.6°C 36.2°F2.3°C 53% 4.2 mph NW6.8 kmh NW 15.0 mph24.1 kmh 30.08 in1018.6 mb 0.00 in0.0 mm 0.00 in0.0 mm 0.03 in0.8 mm
04:57 PM 53.0°F11.7°C 36.3°F2.4°C 53% 4.8 mph WNW7.7 kmh WNW 15.0 mph24.1 kmh 30.08 in1018.6 mb 0.00 in0.0 mm 0.00 in0.0 mm 0.03 in0.8 mm
05:02 PM 53.0°F11.7°C 36.3°F2.4°C 53% 5.0 mph NW8.0 kmh NW 14.0 mph22.5 kmh 30.08 in1018.6 mb 0.00 in0.0 mm 0.00 in0.0 mm 0.03 in0.8 mm
05:07 PM 52.9°F11.6°C 35.8°F2.1°C 52% 4.4 mph WNW7.1 kmh WNW 14.0 mph22.5 kmh 30.08 in1018.6 mb 0.00 in0.0 mm 0.00 in0.0 mm 0.03 in0.8 mm
05:12 PM 53.0°F11.7°C 36.3°F2.4°C 53% 4.4 mph NNW7.1 kmh NNW 14.0 mph22.5 kmh 30.08 in1018.6 mb 0.00 in0.0 mm 0.00 in0.0 mm 0.03 in0.8 mm
05:17 PM 52.9°F11.6°C 35.7°F2.1°C 52% 4.7 mph NW7.6 kmh NW 12.0 mph19.3 kmh 30.08 in1018.6 mb 0.00 in0.0 mm 0.00 in0.0 mm 0.03 in0.8 mm
05:22 PM 52.8°F11.6°C 35.6°F2.0°C 52% 4.6 mph NW7.4 kmh NW 12.0 mph19.3 kmh 30.08 in1018.6 mb 0.00 in0.0 mm 0.00 in0.0 mm 0.03 in0.8 mm
05:27 PM 52.8°F11.6°C 35.6°F2.0°C 52% 3.6 mph NW5.8 kmh NW 13.0 mph20.9 kmh 30.08 in1018.6 mb 0.00 in0.0 mm 0.00 in0.0 mm 0.03 in0.8 mm
05:32 PM 52.8°F11.6°C 35.6°F2.0°C 52% 4.3 mph NW6.9 kmh NW 13.0 mph20.9 kmh 30.08 in1018.6 mb 0.00 in0.0 mm 0.00 in0.0 mm 0.03 in0.8 mm
05:37 PM 52.6°F11.4°C 35.0°F1.7°C 51% 3.3 mph NW5.3 kmh NW 13.0 mph20.9 kmh 30.08 in1018.6 mb 0.00 in0.0 mm 0.00 in0.0 mm 0.03 in0.8 mm
05:42 PM 52.5°F11.4°C 34.9°F1.6°C 51% 4.9 mph NW7.9 kmh NW 13.0 mph20.9 kmh 30.08 in1018.6 mb 0.00 in0.0 mm 0.00 in0.0 mm 0.03 in0.8 mm
05:47 PM 52.4°F11.3°C 34.3°F1.3°C 50% 6.0 mph NW9.7 kmh NW 14.0 mph22.5 kmh 30.08 in1018.6 mb 0.00 in0.0 mm 0.00 in0.0 mm 0.03 in0.8 mm
05:52 PM 52.3°F11.3°C 34.7°F1.5°C 51% 3.6 mph NW5.8 kmh NW 14.0 mph22.5 kmh 30.10 in1019.3 mb 0.00 in0.0 mm 0.00 in0.0 mm 0.03 in0.8 mm
05:57 PM 52.3°F11.3°C 34.7°F1.5°C 51% 4.0 mph NW6.4 kmh NW 14.0 mph22.5 kmh 30.10 in1019.3 mb 0.00 in0.0 mm 0.00 in0.0 mm 0.03 in0.8 mm
06:02 PM 52.2°F11.2°C 35.1°F1.7°C 52% 3.3 mph NW5.3 kmh NW 14.0 mph22.5 kmh 30.10 in1019.3 mb 0.00 in0.0 mm 0.00 in0.0 mm 0.03 in0.8 mm
06:07 PM 52.2°F11.2°C 34.1°F1.2°C 50% 3.3 mph NW5.3 kmh NW 11.0 mph17.7 kmh 30.10 in1019.3 mb 0.00 in0.0 mm 0.00 in0.0 mm 0.03 in0.8 mm
06:12 PM 52.1°F11.2°C 32.9°F0.5°C 48% 6.4 mph NW10.3 kmh NW 14.0 mph22.5 kmh 30.10 in1019.3 mb 0.00 in0.0 mm 0.00 in0.0 mm 0.03 in0.8 mm
06:17 PM 51.9°F11.1°C 32.8°F0.4°C 48% 3.6 mph WNW5.8 kmh WNW 14.0 mph22.5 kmh 30.10 in1019.3 mb 0.00 in0.0 mm 0.00 in0.0 mm 0.03 in0.8 mm
06:22 PM 51.8°F11.0°C 32.7°F0.4°C 48% 3.9 mph NW6.3 kmh NW 15.0 mph24.1 kmh 30.10 in1019.3 mb 0.00 in0.0 mm 0.00 in0.0 mm 0.03 in0.8 mm
06:27 PM 51.7°F10.9°C 33.1°F0.6°C 49% 4.5 mph NW7.2 kmh NW 15.0 mph24.1 kmh 30.10 in1019.3 mb 0.00 in0.0 mm 0.00 in0.0 mm 0.03 in0.8 mm
06:32 PM 51.6°F10.9°C 33.0°F0.6°C 49% 3.9 mph NW6.3 kmh NW 15.0 mph24.1 kmh 30.10 in1019.3 mb 0.00 in0.0 mm 0.00 in0.0 mm 0.03 in0.8 mm
06:37 PM 51.5°F10.8°C 32.9°F0.5°C 49% 5.0 mph NW8.0 kmh NW 15.0 mph24.1 kmh 30.10 in1019.3 mb 0.00 in0.0 mm 0.00 in0.0 mm 0.03 in0.8 mm
06:42 PM 51.4°F10.8°C 33.4°F0.8°C 50% 4.7 mph NW7.6 kmh NW 13.0 mph20.9 kmh 30.10 in1019.3 mb 0.00 in0.0 mm 0.00 in0.0 mm 0.03 in0.8 mm
06:47 PM 51.3°F10.7°C 33.3°F0.7°C 50% 3.4 mph NNW5.5 kmh NNW 13.0 mph20.9 kmh 30.10 in1019.3 mb 0.00 in0.0 mm 0.00 in0.0 mm 0.03 in0.8 mm
06:52 PM 51.2°F10.7°C 33.7°F0.9°C 51% 2.4 mph NW3.9 kmh NW 13.0 mph20.9 kmh 30.11 in1019.6 mb 0.00 in0.0 mm 0.00 in0.0 mm 0.03 in0.8 mm
06:57 PM 51.1°F10.6°C 33.6°F0.9°C 51% 4.5 mph NW7.2 kmh NW 13.0 mph20.9 kmh 30.11 in1019.6 mb 0.00 in0.0 mm 0.00 in0.0 mm 0.03 in0.8 mm
07:03 PM 51.0°F10.6°C 33.5°F0.8°C 51% 3.5 mph NNW5.6 kmh NNW 11.0 mph17.7 kmh 30.10 in1019.3 mb 0.00 in0.0 mm 0.00 in0.0 mm 0.03 in0.8 mm
07:07 PM 50.9°F10.5°C 33.4°F0.8°C 51% 3.8 mph NNW6.1 kmh NNW 11.0 mph17.7 kmh 30.10 in1019.3 mb 0.00 in0.0 mm 0.00 in0.0 mm 0.03 in0.8 mm
07:11 PM 50.8°F10.4°C 34.3°F1.3°C 53% 1.7 mph NNW2.7 kmh NNW 11.0 mph17.7 kmh 30.11 in1019.6 mb 0.00 in0.0 mm 0.00 in0.0 mm 0.03 in0.8 mm
07:16 PM 50.7°F10.4°C 34.2°F1.2°C 53% 2.3 mph N3.7 kmh N 11.0 mph17.7 kmh 30.10 in1019.3 mb 0.00 in0.0 mm 0.00 in0.0 mm 0.03 in0.8 mm
07:21 PM 50.5°F10.3°C 34.0°F1.1°C 53% 1.9 mph NW3.1 kmh NW 9.0 mph14.5 kmh 30.10 in1019.3 mb 0.00 in0.0 mm 0.00 in0.0 mm 0.03 in0.8 mm
07:26 PM 50.4°F10.2°C 34.4°F1.3°C 54% 2.0 mph NW3.2 kmh NW 8.0 mph12.9 kmh 30.11 in1019.6 mb 0.00 in0.0 mm 0.00 in0.0 mm 0.03 in0.8 mm
07:31 PM 50.3°F10.2°C 34.3°F1.3°C 54% 1.7 mph NW2.7 kmh NW 8.0 mph12.9 kmh 30.11 in1019.6 mb 0.00 in0.0 mm 0.00 in0.0 mm 0.03 in0.8 mm
07:36 PM 50.2°F10.1°C 34.2°F1.2°C 54% 3.0 mph NW4.8 kmh NW 8.0 mph12.9 kmh 30.11 in1019.6 mb 0.00 in0.0 mm 0.00 in0.0 mm 0.03 in0.8 mm
07:41 PM 50.1°F10.1°C 34.6°F1.4°C 55% 3.1 mph NW5.0 kmh NW 8.0 mph12.9 kmh 30.11 in1019.6 mb 0.00 in0.0 mm 0.00 in0.0 mm 0.03 in0.8 mm
07:46 PM 50.0°F10.0°C 34.5°F1.4°C 55% 2.3 mph NW3.7 kmh NW 8.0 mph12.9 kmh 30.11 in1019.6 mb 0.00 in0.0 mm 0.00 in0.0 mm 0.03 in0.8 mm
07:51 PM 49.9°F9.9°C 33.9°F1.1°C 54% 2.9 mph NW4.7 kmh NW 8.0 mph12.9 kmh 30.11 in1019.6 mb 0.00 in0.0 mm 0.00 in0.0 mm 0.03 in0.8 mm
07:56 PM 49.9°F9.9°C 33.9°F1.1°C 54% 3.0 mph NW4.8 kmh NW 8.0 mph12.9 kmh 30.11 in1019.6 mb 0.00 in0.0 mm 0.00 in0.0 mm 0.03 in0.8 mm
08:01 PM 49.9°F9.9°C 33.9°F1.1°C 54% 2.6 mph NW4.2 kmh NW 9.0 mph14.5 kmh 30.12 in1020.0 mb 0.00 in0.0 mm 0.00 in0.0 mm 0.03 in0.8 mm
08:06 PM 49.8°F9.9°C 33.4°F0.8°C 53% 3.3 mph NW5.3 kmh NW 9.0 mph14.5 kmh 30.12 in1020.0 mb 0.00 in0.0 mm 0.00 in0.0 mm 0.03 in0.8 mm
08:11 PM 49.9°F9.9°C 33.0°F0.6°C 52% 4.2 mph NW6.8 kmh NW 13.0 mph20.9 kmh 30.12 in1020.0 mb 0.00 in0.0 mm 0.00 in0.0 mm 0.03 in0.8 mm
08:16 PM 49.9°F9.9°C 33.0°F0.6°C 52% 3.9 mph NW6.3 kmh NW 13.0 mph20.9 kmh 30.12 in1020.0 mb 0.00 in0.0 mm 0.00 in0.0 mm 0.03 in0.8 mm
08:21 PM 49.8°F9.9°C 32.9°F0.5°C 52% 4.0 mph NNW6.4 kmh NNW 13.0 mph20.9 kmh 30.12 in1020.0 mb 0.00 in0.0 mm 0.00 in0.0 mm 0.03 in0.8 mm
08:26 PM 49.7°F9.8°C 32.8°F0.4°C 52% 2.6 mph NNW4.2 kmh NNW 9.0 mph14.5 kmh 30.13 in1020.3 mb 0.00 in0.0 mm 0.00 in0.0 mm 0.03 in0.8 mm
08:31 PM 49.7°F9.8°C 32.8°F0.4°C 52% 3.1 mph NW5.0 kmh NW 9.0 mph14.5 kmh 30.13 in1020.3 mb 0.00 in0.0 mm 0.00 in0.0 mm 0.03 in0.8 mm
08:36 PM 49.6°F9.8°C 32.7°F0.4°C 52% 3.6 mph NW5.8 kmh NW 9.0 mph14.5 kmh 30.13 in1020.3 mb 0.00 in0.0 mm 0.00 in0.0 mm 0.03 in0.8 mm
08:41 PM 49.5°F9.7°C 32.6°F0.3°C 52% 4.7 mph NW7.6 kmh NW 11.0 mph17.7 kmh 30.13 in1020.3 mb 0.00 in0.0 mm 0.00 in0.0 mm 0.03 in0.8 mm
08:46 PM 49.4°F9.7°C 32.5°F0.3°C 52% 6.6 mph NNW10.6 kmh NNW 12.0 mph19.3 kmh 30.13 in1020.3 mb 0.00 in0.0 mm 0.00 in0.0 mm 0.03 in0.8 mm
08:51 PM 49.3°F9.6°C 32.9°F0.5°C 53% 3.2 mph NNW5.1 kmh NNW 12.0 mph19.3 kmh 30.13 in1020.3 mb 0.00 in0.0 mm 0.00 in0.0 mm 0.03 in0.8 mm
08:56 PM 49.2°F9.6°C 32.8°F0.4°C 53% 4.7 mph NW7.6 kmh NW 12.0 mph19.3 kmh 30.13 in1020.3 mb 0.00 in0.0 mm 0.00 in0.0 mm 0.03 in0.8 mm
09:01 PM 49.1°F9.5°C 32.7°F0.4°C 53% 3.2 mph NNW5.1 kmh NNW 12.0 mph19.3 kmh 30.13 in1020.3 mb 0.00 in0.0 mm 0.00 in0.0 mm 0.03 in0.8 mm
09:06 PM 48.9°F9.4°C 32.5°F0.3°C 53% 2.6 mph NNW4.2 kmh NNW 11.0 mph17.7 kmh 30.14 in1020.7 mb 0.00 in0.0 mm 0.00 in0.0 mm 0.03 in0.8 mm
09:11 PM 48.9°F9.4°C 32.5°F0.3°C 53% 4.3 mph NW6.9 kmh NW 11.0 mph17.7 kmh 30.14 in1020.7 mb 0.00 in0.0 mm 0.00 in0.0 mm 0.03 in0.8 mm
09:16 PM 48.8°F9.3°C 32.4°F0.2°C 53% 3.0 mph NNW4.8 kmh NNW 11.0 mph17.7 kmh 30.14 in1020.7 mb 0.00 in0.0 mm 0.00 in0.0 mm 0.03 in0.8 mm
09:21 PM 48.7°F9.3°C 32.8°F0.4°C 54% 3.6 mph NW5.8 kmh NW 11.0 mph17.7 kmh 30.14 in1020.7 mb 0.00 in0.0 mm 0.00 in0.0 mm 0.03 in0.8 mm
09:26 PM 48.5°F9.2°C 32.6°F0.3°C 54% 4.6 mph NW7.4 kmh NW 11.0 mph17.7 kmh 30.14 in1020.7 mb 0.00 in0.0 mm 0.00 in0.0 mm 0.03 in0.8 mm
09:31 PM 48.4°F9.1°C 32.5°F0.3°C 54% 1.6 mph NW2.6 kmh NW 10.0 mph16.1 kmh 30.14 in1020.7 mb 0.00 in0.0 mm 0.00 in0.0 mm 0.03 in0.8 mm
09:37 PM 48.3°F9.1°C 32.4°F0.2°C 54% 3.0 mph NNW4.8 kmh NNW 11.0 mph17.7 kmh 30.13 in1020.3 mb 0.00 in0.0 mm 0.00 in0.0 mm 0.03 in0.8 mm
09:42 PM 48.2°F9.0°C 32.3°F0.2°C 54% 3.6 mph NW5.8 kmh NW 11.0 mph17.7 kmh 30.13 in1020.3 mb 0.00 in0.0 mm 0.00 in0.0 mm 0.03 in0.8 mm
09:47 PM 48.1°F8.9°C 31.8°F-0.1°C 53% 2.8 mph NNW4.5 kmh NNW 11.0 mph17.7 kmh 30.14 in1020.7 mb 0.00 in0.0 mm 0.00 in0.0 mm 0.03 in0.8 mm
09:52 PM 48.1°F8.9°C 31.8°F-0.1°C 53% 3.2 mph NW5.1 kmh NW 10.0 mph16.1 kmh 30.14 in1020.7 mb 0.00 in0.0 mm 0.00 in0.0 mm 0.03 in0.8 mm
09:56 PM 48.1°F8.9°C 31.8°F-0.1°C 53% 2.4 mph N3.9 kmh N 12.0 mph19.3 kmh 30.14 in1020.7 mb 0.00 in0.0 mm 0.00 in0.0 mm 0.03 in0.8 mm
10:02 PM 48.0°F8.9°C 31.7°F-0.2°C 53% 2.8 mph NW4.5 kmh NW 12.0 mph19.3 kmh 30.14 in1020.7 mb 0.00 in0.0 mm 0.00 in0.0 mm 0.03 in0.8 mm
10:06 PM 47.9°F8.8°C 31.6°F-0.2°C 53% 3.6 mph NNW5.8 kmh NNW 12.0 mph19.3 kmh 30.14 in1020.7 mb 0.00 in0.0 mm 0.00 in0.0 mm 0.03 in0.8 mm
10:12 PM 47.9°F8.8°C 31.1°F-0.5°C 52% 3.8 mph NNW6.1 kmh NNW 12.0 mph19.3 kmh 30.13 in1020.3 mb 0.00 in0.0 mm 0.00 in0.0 mm 0.03 in0.8 mm
10:17 PM 47.9°F8.8°C 31.6°F-0.2°C 53% 2.6 mph NW4.2 kmh NW 10.0 mph16.1 kmh 30.13 in1020.3 mb 0.00 in0.0 mm 0.00 in0.0 mm 0.03 in0.8 mm
10:21 PM 47.8°F8.8°C 31.0°F-0.6°C 52% 2.3 mph NNW3.7 kmh NNW 10.0 mph16.1 kmh 30.13 in1020.3 mb 0.00 in0.0 mm 0.00 in0.0 mm 0.03 in0.8 mm
10:27 PM 47.7°F8.7°C 30.9°F-0.6°C 52% 2.9 mph NNW4.7 kmh NNW 10.0 mph16.1 kmh 30.13 in1020.3 mb 0.00 in0.0 mm 0.00 in0.0 mm 0.03 in0.8 mm
10:32 PM 47.7°F8.7°C 30.9°F-0.6°C 52% 2.8 mph NNW4.5 kmh NNW 9.0 mph14.5 kmh 30.13 in1020.3 mb 0.00 in0.0 mm 0.00 in0.0 mm 0.03 in0.8 mm
10:37 PM 47.7°F8.7°C 30.9°F-0.6°C 52% 2.9 mph NW4.7 kmh NW 10.0 mph16.1 kmh 30.13 in1020.3 mb 0.00 in0.0 mm 0.00 in0.0 mm 0.03 in0.8 mm
10:42 PM 47.7°F8.7°C 30.4°F-0.9°C 51% 4.0 mph N6.4 kmh N 10.0 mph16.1 kmh 30.14 in1020.7 mb 0.00 in0.0 mm 0.00 in0.0 mm 0.03 in0.8 mm
10:47 PM 47.7°F8.7°C 30.4°F-0.9°C 51% 1.2 mph N1.9 kmh N 10.0 mph16.1 kmh 30.14 in1020.7 mb 0.00 in0.0 mm 0.00 in0.0 mm 0.03 in0.8 mm
10:52 PM 47.6°F8.7°C 30.3°F-0.9°C 51% 2.5 mph NNW4.0 kmh NNW 9.0 mph14.5 kmh 30.14 in1020.7 mb 0.00 in0.0 mm 0.00 in0.0 mm 0.03 in0.8 mm
10:57 PM 47.5°F8.6°C 30.7°F-0.7°C 52% 1.4 mph NNW2.3 kmh NNW 9.0 mph14.5 kmh 30.14 in1020.7 mb 0.00 in0.0 mm 0.00 in0.0 mm 0.03 in0.8 mm
11:02 PM 47.4°F8.6°C 30.6°F-0.8°C 52% 2.2 mph NNW3.5 kmh NNW 9.0 mph14.5 kmh 30.14 in1020.7 mb 0.00 in0.0 mm 0.00 in0.0 mm 0.03 in0.8 mm
11:07 PM 47.4°F8.6°C 30.2°F-1.0°C 51% 3.3 mph NNW5.3 kmh NNW 9.0 mph14.5 kmh 30.14 in1020.7 mb 0.00 in0.0 mm 0.00 in0.0 mm 0.03 in0.8 mm
11:12 PM 47.3°F8.5°C 30.1°F-1.1°C 51% 2.0 mph N3.2 kmh N 9.0 mph14.5 kmh 30.14 in1020.7 mb 0.00 in0.0 mm 0.00 in0.0 mm 0.03 in0.8 mm
11:17 PM 47.1°F8.4°C 30.4°F-0.9°C 52% 2.6 mph NW4.2 kmh NW 9.0 mph14.5 kmh 30.14 in1020.7 mb 0.00 in0.0 mm 0.00 in0.0 mm 0.03 in0.8 mm
11:22 PM 47.0°F8.3°C 30.3°F-0.9°C 52% 2.5 mph N4.0 kmh N 9.0 mph14.5 kmh 30.14 in1020.7 mb 0.00 in0.0 mm 0.00 in0.0 mm 0.03 in0.8 mm
11:27 PM 46.9°F8.3°C 30.2°F-1.0°C 52% 2.1 mph NNE3.4 kmh NNE 7.0 mph11.3 kmh 30.15 in1021.0 mb 0.00 in0.0 mm 0.00 in0.0 mm 0.03 in0.8 mm
11:32 PM 46.7°F8.2°C 30.0°F-1.1°C 52% 1.9 mph N3.1 kmh N 7.0 mph11.3 kmh 30.14 in1020.7 mb 0.00 in0.0 mm 0.00 in0.0 mm 0.03 in0.8 mm
11:37 PM 46.5°F8.1°C 29.8°F-1.2°C 52% 2.0 mph N3.2 kmh N 6.0 mph9.7 kmh 30.15 in1021.0 mb 0.00 in0.0 mm 0.00 in0.0 mm 0.03 in0.8 mm
11:42 PM 46.4°F8.0°C 29.7°F-1.3°C 52% 2.1 mph N3.4 kmh N 6.0 mph9.7 kmh 30.15 in1021.0 mb 0.00 in0.0 mm 0.00 in0.0 mm 0.03 in0.8 mm
11:47 PM 46.3°F7.9°C 29.6°F-1.3°C 52% 3.1 mph N5.0 kmh N 8.0 mph12.9 kmh 30.15 in1021.0 mb 0.00 in0.0 mm 0.00 in0.0 mm 0.03 in0.8 mm
11:52 PM 46.1°F7.8°C 29.4°F-1.4°C 52% 2.0 mph N3.2 kmh N 8.0 mph12.9 kmh 30.15 in1021.0 mb 0.00 in0.0 mm 0.00 in0.0 mm 0.03 in0.8 mm
11:57 PM 45.9°F7.7°C 29.2°F-1.6°C 52% 1.7 mph N2.7 kmh N 8.0 mph12.9 kmh 30.15 in1021.0 mb 0.00 in0.0 mm 0.00 in0.0 mm 0.03 in0.8 mm